West Gum Springs, Arkansas
Current Conditions -  °F | °C
As of 3:56 AM on Saturday 22 Nov 2014 (Local Time) from KADF Reporting Station
Haze Haze  
Wind Chill: 52°   Ceiling: 4100
Heat Index: 52°   Visibility: 4mi
Dew Point: 52°   Wind: 0mph
Humidity: 100%   Direction: NA
Pressure: 30.2"   Gusts: NA
Location:  34.0941°N, 93.0475°W
Report Text: KADF 220956Z AUTO 00000KT 4SM BR OVC041 11/11 A3020 RMK AO2 T01110111 RAE18 P0001 SLP241
Loading
Personal Weather Stations






























Interactive Weather Map New forecast layout! Learn more

10-Day Weather Forecast

Advertisements
Track Severe Weather on mobile